Time;durP1;ratioP1;P1;durP2;ratioP2;P2;SDS_P1;SDS_P2;PMS_P1;PMS_P2;Temp;Humidity;BMP_temperature;BMP_pressure;BME280_temperature;BME280_humidity;BME280_pressure;Samples;Min_cycle;Max_cycle;Signal;HPM_P1;HPM_P2
2022/06/28 00:00:28;;;;;;;5.15;4.32;;;18.20;99.90;;;;;;5003089;28;20026;-60
2022/06/28 00:02:53;;;;;;;4.97;4.57;;;18.20;99.90;;;;;;4999140;28;20069;-60
2022/06/28 00:05:19;;;;;;;5.35;4.32;;;18.20;99.90;;;;;;5004071;28;20049;-60
2022/06/28 00:07:45;;;;;;;5.78;5.28;;;18.10;99.90;;;;;;5000852;28;20033;-60
2022/06/28 00:10:13;;;;;;;4.72;4.30;;;18.10;99.90;;;;;;5001357;28;20038;-60
2022/06/28 00:12:39;;;;;;;4.80;4.50;;;18.10;99.90;;;;;;5004806;28;20084;-61
2022/06/28 00:17:52;;;;;;;5.15;4.43;;;18.10;99.90;;;;;;4999556;28;20525;-60
2022/06/28 00:20:18;;;;;;;4.93;4.60;;;18.10;99.90;;;;;;4997637;28;20042;-61
2022/06/28 00:22:43;;;;;;;5.55;5.15;;;18.10;99.90;;;;;;5001551;28;20068;-60
2022/06/28 00:25:10;;;;;;;5.88;5.28;;;18.10;99.90;;;;;;5005171;28;20018;-60
2022/06/28 00:27:36;;;;;;;6.00;5.13;;;18.10;99.90;;;;;;4999630;28;20026;-60
2022/06/28 00:30:04;;;;;;;9.60;6.15;;;18.10;99.90;;;;;;4999251;28;20018;-60
2022/06/28 00:32:29;;;;;;;6.25;5.22;;;18.00;99.90;;;;;;5002695;28;20092;-60
2022/06/28 00:34:55;;;;;;;5.28;4.88;;;18.00;99.90;;;;;;5005158;28;20030;-60
2022/06/28 00:37:21;;;;;;;6.15;4.60;;;18.00;99.90;;;;;;4999558;28;20038;-60
2022/06/28 00:39:46;;;;;;;5.22;4.72;;;18.00;99.90;;;;;;4999699;28;20033;-60
2022/06/28 00:42:12;;;;;;;10.48;4.55;;;18.00;99.90;;;;;;5000949;28;20025;-61
2022/06/28 00:44:38;;;;;;;5.75;5.28;;;17.90;99.90;;;;;;5001445;28;20027;-61
2022/06/28 00:47:04;;;;;;;6.10;5.63;;;17.90;99.90;;;;;;4997874;28;20414;-60
2022/06/28 00:49:31;;;;;;;6.68;5.05;;;17.80;99.90;;;;;;4995128;28;20049;-60
2022/06/28 00:51:58;;;;;;;9.27;5.70;;;17.80;99.90;;;;;;4999234;28;20026;-61
2022/06/28 00:54:25;;;;;;;6.10;5.20;;;17.70;99.90;;;;;;4998640;28;20026;-61
2022/06/28 00:56:51;;;;;;;6.90;5.43;;;17.70;99.90;;;;;;4997168;28;20026;-61
2022/06/28 00:59:17;;;;;;;5.80;5.40;;;17.60;99.90;;;;;;5002026;28;20524;-60
2022/06/28 01:01:43;;;;;;;6.30;5.80;;;17.60;99.90;;;;;;5001840;28;20069;-60
2022/06/28 01:04:09;;;;;;;11.45;5.97;;;17.60;99.90;;;;;;4994024;28;20036;-60
2022/06/28 01:06:38;;;;;;;6.85;5.75;;;17.60;99.90;;;;;;5002232;28;20374;-60
2022/06/28 01:09:03;;;;;;;6.28;5.78;;;17.50;99.90;;;;;;5002894;28;20045;-60
2022/06/28 01:11:29;;;;;;;6.38;5.93;;;17.50;99.90;;;;;;5005770;28;20030;-60
2022/06/28 01:13:59;;;;;;;5.75;5.25;;;17.50;99.90;;;;;;5000906;28;20077;-60
2022/06/28 01:16:26;;;;;;;6.32;5.68;;;17.50;99.90;;;;;;4999823;28;20030;-60
2022/06/28 01:18:52;;;;;;;5.78;5.40;;;17.40;99.90;;;;;;4997368;28;20033;-60
2022/06/28 01:21:18;;;;;;;8.05;5.00;;;17.40;99.90;;;;;;4999351;28;20038;-61
2022/06/28 01:23:45;;;;;;;6.13;5.63;;;17.30;99.90;;;;;;5006378;28;20029;-60
2022/06/28 01:26:13;;;;;;;6.30;5.88;;;17.30;99.90;;;;;;5001374;28;20035;-60
2022/06/28 01:28:41;;;;;;;5.75;5.32;;;17.20;99.90;;;;;;4996149;28;20034;-60
2022/06/28 01:31:07;;;;;;;6.57;5.25;;;17.20;99.90;;;;;;4998488;28;20023;-60
2022/06/28 01:33:36;;;;;;;5.35;4.75;;;17.20;99.90;;;;;;4998620;28;20034;-61
2022/06/28 01:36:02;;;;;;;6.40;5.20;;;17.20;99.90;;;;;;4997794;28;20432;-60
2022/06/28 01:38:28;;;;;;;5.70;5.13;;;17.10;99.90;;;;;;5001517;28;20099;-60
2022/06/28 01:40:54;;;;;;;5.45;4.88;;;17.10;99.90;;;;;;5000258;28;20022;-60
2022/06/28 01:43:22;;;;;;;6.78;6.18;;;17.00;99.90;;;;;;4995336;28;20053;-60
2022/06/28 01:45:52;;;;;;;5.50;5.00;;;17.00;99.90;;;;;;4995723;28;20031;-60
2022/06/28 01:48:19;;;;;;;9.25;6.43;;;17.00;99.90;;;;;;4995586;28;20042;-60
2022/06/28 01:50:49;;;;;;;10.05;6.70;;;16.90;99.90;;;;;;5001667;28;20042;-60
2022/06/28 01:53:15;;;;;;;10.23;6.82;;;16.90;99.90;;;;;;5000646;28;20033;-60
2022/06/28 01:55:41;;;;;;;6.38;5.88;;;16.90;99.90;;;;;;5002414;28;20036;-60
2022/06/28 01:58:08;;;;;;;6.93;6.43;;;16.90;99.90;;;;;;5003164;28;20030;-60
2022/06/28 02:00:34;;;;;;;6.78;6.22;;;16.90;99.90;;;;;;4996819;28;20023;-60
2022/06/28 02:03:00;;;;;;;5.63;5.22;;;16.80;99.90;;;;;;5002617;28;20068;-60
2022/06/28 02:05:26;;;;;;;5.45;5.05;;;16.80;99.90;;;;;;5001801;28;20052;-60
2022/06/28 02:07:52;;;;;;;6.68;5.97;;;16.70;99.90;;;;;;4998809;28;20556;-60
2022/06/28 02:10:19;;;;;;;8.13;5.70;;;16.70;99.90;;;;;;5001593;28;20053;-60
2022/06/28 02:12:45;;;;;;;7.13;6.43;;;16.60;99.90;;;;;;4999202;28;20026;-60
2022/06/28 02:15:12;;;;;;;8.77;6.22;;;16.60;99.90;;;;;;5003939;28;20028;-60
2022/06/28 02:17:38;;;;;;;6.03;5.53;;;16.50;99.90;;;;;;5001586;28;20034;-60
2022/06/28 02:20:04;;;;;;;7.47;6.88;;;16.40;99.90;;;;;;5001831;28;20027;-60
2022/06/28 02:22:30;;;;;;;6.72;6.32;;;16.40;99.90;;;;;;4998410;28;20026;-60
2022/06/28 02:24:56;;;;;;;7.80;7.20;;;16.30;99.90;;;;;;5001671;28;20034;-60
2022/06/28 02:27:22;;;;;;;7.25;6.45;;;16.30;99.90;;;;;;5002674;28;20100;-60
2022/06/28 02:29:48;;;;;;;6.25;5.75;;;16.20;99.90;;;;;;4999106;28;20028;-60
2022/06/28 02:32:13;;;;;;;6.95;6.30;;;16.20;99.90;;;;;;4997014;28;20528;-60
2022/06/28 02:40:27;;;;;;;7.38;6.85;;;16.10;99.90;;;;;;5001839;28;20412;-60
2022/06/28 02:42:55;;;;;;;7.40;6.90;;;16.10;99.90;;;;;;4996912;28;20553;-60
2022/06/28 02:45:22;;;;;;;8.90;8.20;;;16.00;99.90;;;;;;4996376;28;20049;-60
2022/06/28 02:47:48;;;;;;;8.00;7.30;;;16.00;99.90;;;;;;5001305;28;20049;-60
2022/06/28 02:50:14;;;;;;;8.50;7.63;;;16.00;99.90;;;;;;5001960;28;20497;-60
2022/06/28 02:52:40;;;;;;;9.25;8.60;;;15.90;99.90;;;;;;5005293;28;20500;-60
2022/06/28 02:55:06;;;;;;;10.25;9.45;;;15.90;99.90;;;;;;4997220;28;20117;-60
2022/06/28 02:57:33;;;;;;;10.35;9.48;;;15.80;99.90;;;;;;5001246;28;20030;-60
2022/06/28 02:59:59;;;;;;;8.48;7.75;;;15.80;99.90;;;;;;5003467;28;20018;-60
2022/06/28 03:02:25;;;;;;;11.23;9.30;;;15.70;99.90;;;;;;5002164;28;20038;-60
2022/06/28 03:04:51;;;;;;;10.10;9.18;;;15.70;99.90;;;;;;5019388;28;20037;-60
2022/06/28 03:07:16;;;;;;;15.85;9.82;;;15.70;99.90;;;;;;4998343;28;20025;-60
2022/06/28 03:09:42;;;;;;;9.85;8.95;;;15.70;99.90;;;;;;4998257;28;20030;-60
2022/06/28 03:12:08;;;;;;;10.50;9.13;;;15.70;99.90;;;;;;5000110;28;20099;-60
2022/06/28 03:14:33;;;;;;;10.20;9.15;;;15.60;99.90;;;;;;4997763;28;20034;-60
2022/06/28 03:17:00;;;;;;;9.35;8.75;;;15.60;99.90;;;;;;5007561;28;20029;-60
2022/06/28 03:19:25;;;;;;;9.82;8.07;;;15.60;99.90;;;;;;5005403;28;20053;-60
2022/06/28 03:21:51;;;;;;;10.55;9.75;;;15.50;99.90;;;;;;5003191;28;20559;-60
2022/06/28 03:24:17;;;;;;;11.18;10.18;;;15.40;99.90;;;;;;4998865;28;20551;-61
2022/06/28 03:26:43;;;;;;;11.20;10.20;;;15.50;99.90;;;;;;4999124;28;20014;-60
2022/06/28 03:29:09;;;;;;;10.77;9.68;;;15.50;99.90;;;;;;5000186;28;20080;-60
2022/06/28 03:31:34;;;;;;;12.70;9.43;;;15.40;99.90;;;;;;5004529;28;20145;-60
2022/06/28 03:34:00;;;;;;;10.07;9.10;;;15.40;99.90;;;;;;5003296;28;20033;-60
2022/06/28 03:36:26;;;;;;;9.00;8.30;;;15.40;99.90;;;;;;5001935;28;20097;-60
2022/06/28 03:38:52;;;;;;;10.98;9.23;;;15.40;99.90;;;;;;4996914;28;20462;-60
2022/06/28 03:41:23;;;;;;;10.40;9.65;;;15.40;99.90;;;;;;5001650;28;20033;-60
2022/06/28 03:43:50;;;;;;;9.30;8.60;;;15.30;99.90;;;;;;5001704;28;20044;-60
2022/06/28 03:46:17;;;;;;;11.90;10.05;;;15.40;99.90;;;;;;4999979;28;20049;-60
2022/06/28 03:48:43;;;;;;;10.63;9.80;;;15.40;99.90;;;;;;4999206;28;20030;-60
2022/06/28 03:51:10;;;;;;;11.98;10.98;;;15.40;99.90;;;;;;5000851;28;20412;-60
2022/06/28 03:53:35;;;;;;;12.40;10.88;;;15.30;99.90;;;;;;4999258;28;20038;-60
2022/06/28 03:56:01;;;;;;;10.38;9.48;;;15.30;99.90;;;;;;5000768;28;20045;-60
2022/06/28 03:58:27;;;;;;;10.52;9.73;;;15.30;99.90;;;;;;4995898;28;20030;-60
2022/06/28 04:00:53;;;;;;;13.95;12.50;;;15.30;99.90;;;;;;4997444;28;20509;-60
2022/06/28 04:03:19;;;;;;;10.10;9.30;;;15.20;99.90;;;;;;5001409;28;20037;-60
2022/06/28 04:05:44;;;;;;;9.77;8.98;;;15.20;99.90;;;;;;5002667;28;20018;-60
2022/06/28 04:08:10;;;;;;;10.57;9.68;;;15.30;99.90;;;;;;5005666;28;20033;-60
2022/06/28 04:10:36;;;;;;;10.10;7.45;;;15.30;99.90;;;;;;5001862;28;20417;-60
2022/06/28 04:13:02;;;;;;;7.78;7.03;;;15.30;99.90;;;;;;4998854;28;20027;-60
2022/06/28 04:15:28;;;;;;;11.65;10.48;;;15.30;99.90;;;;;;5002526;28;20034;-60
2022/06/28 04:17:53;;;;;;;12.80;11.57;;;15.40;99.90;;;;;;5003506;28;20034;-60
2022/06/28 04:20:19;;;;;;;13.02;11.55;;;15.50;99.90;;;;;;5002421;28;20031;-60
2022/06/28 04:22:45;;;;;;;20.60;12.43;;;15.60;99.90;;;;;;4998137;28;20030;-60
2022/06/28 04:25:10;;;;;;;10.10;9.40;;;15.80;99.90;;;;;;5000126;28;20045;-60
2022/06/28 04:27:36;;;;;;;11.18;10.38;;;15.90;99.90;;;;;;5000843;28;20026;-60
2022/06/28 04:30:03;;;;;;;11.77;10.50;;;16.00;99.90;;;;;;4999399;28;20080;-60
2022/06/28 04:32:29;;;;;;;10.70;9.60;;;16.20;99.90;;;;;;4997739;28;20026;-60
2022/06/28 04:34:56;;;;;;;9.15;8.38;;;16.30;99.90;;;;;;5002859;28;20037;-60
2022/06/28 04:37:21;;;;;;;10.45;9.20;;;16.30;99.90;;;;;;5000977;28;20026;-60
2022/06/28 04:39:47;;;;;;;8.68;7.72;;;16.40;99.90;;;;;;5000007;28;20022;-60
2022/06/28 04:42:13;;;;;;;8.65;7.97;;;16.50;99.90;;;;;;5001688;28;20032;-61
2022/06/28 04:44:39;;;;;;;8.43;7.53;;;16.70;99.90;;;;;;4998173;28;20022;-60
2022/06/28 04:47:05;;;;;;;8.52;7.80;;;16.80;99.90;;;;;;5001593;28;20026;-60
2022/06/28 04:49:30;;;;;;;8.27;7.10;;;16.90;99.90;;;;;;4999678;28;20026;-60
2022/06/28 04:51:56;;;;;;;8.75;7.95;;;17.00;99.90;;;;;;5000020;28;20045;-60
2022/06/28 04:54:22;;;;;;;8.05;7.45;;;17.10;99.90;;;;;;5000265;28;20107;-60
2022/06/28 04:56:48;;;;;;;8.38;6.85;;;17.20;99.90;;;;;;4999244;28;20114;-60
2022/06/28 04:59:13;;;;;;;7.60;6.90;;;17.40;99.90;;;;;;5000879;28;20068;-60
2022/06/28 05:01:39;;;;;;;8.20;6.90;;;17.50;99.90;;;;;;5001791;28;20117;-60
2022/06/28 05:04:05;;;;;;;9.40;7.25;;;17.60;99.90;;;;;;4996092;28;20034;-60
2022/06/28 05:06:30;;;;;;;9.52;6.97;;;17.60;99.90;;;;;;5006082;28;20053;-60
2022/06/28 05:08:56;;;;;;;6.97;6.38;;;17.70;99.90;;;;;;5002695;28;20022;-60
2022/06/28 05:11:22;;;;;;;9.20;7.20;;;17.70;99.90;;;;;;4997894;28;20037;-60
2022/06/28 05:13:48;;;;;;;7.57;6.90;;;17.80;99.90;;;;;;5000330;28;20080;-60
2022/06/28 05:16:14;;;;;;;11.18;7.45;;;17.90;99.90;;;;;;5000418;28;20026;-60
2022/06/28 05:18:39;;;;;;;8.77;7.40;;;18.00;99.90;;;;;;5002138;28;20022;-60
2022/06/28 05:21:05;;;;;;;7.55;6.75;;;18.10;99.90;;;;;;5002630;28;20022;-60
2022/06/28 05:23:31;;;;;;;6.90;6.30;;;18.40;99.90;;;;;;5001347;28;20041;-60
2022/06/28 05:25:56;;;;;;;6.28;5.75;;;18.70;99.90;;;;;;4998147;28;20027;-60
2022/06/28 05:28:22;;;;;;;6.63;5.97;;;19.30;99.90;;;;;;5000792;28;20030;-60
2022/06/28 05:30:48;;;;;;;6.97;5.70;;;19.80;99.90;;;;;;5001267;28;20448;-60
2022/06/28 05:33:14;;;;;;;10.32;5.63;;;20.00;99.90;;;;;;5002968;28;20026;-61
2022/06/28 05:35:40;;;;;;;12.80;5.07;;;20.20;99.90;;;;;;5004041;28;20033;-60
2022/06/28 05:38:06;;;;;;;6.28;5.80;;;20.20;99.90;;;;;;4995528;28;20052;-59
2022/06/28 05:40:31;;;;;;;5.70;5.18;;;20.20;99.90;;;;;;5001855;28;20582;-59
2022/06/28 05:42:57;;;;;;;5.30;4.90;;;20.40;99.90;;;;;;4999088;28;20050;-58
2022/06/28 05:45:23;;;;;;;6.07;5.57;;;20.70;99.90;;;;;;5002762;28;20029;-58
2022/06/28 05:47:49;;;;;;;6.03;5.63;;;21.00;99.90;;;;;;5001315;28;20065;-58
2022/06/28 05:50:14;;;;;;;7.15;4.78;;;21.30;99.90;;;;;;4998594;28;20038;-58
2022/06/28 05:52:40;;;;;;;5.32;4.88;;;22.20;99.90;;;;;;4994868;28;20378;-58
2022/06/28 05:55:06;;;;;;;5.65;4.75;;;23.50;99.90;;;;;;4997791;28;20038;-59
2022/06/28 05:57:31;;;;;;;4.85;4.43;;;24.80;99.90;;;;;;5000279;28;20034;-59
2022/06/28 05:59:57;;;;;;;4.05;3.85;;;25.50;99.90;;;;;;5006129;28;20025;-58
2022/06/28 06:02:23;;;;;;;5.85;3.63;;;25.70;99.90;;;;;;5002451;28;20034;-58
2022/06/28 06:04:49;;;;;;;4.28;3.90;;;26.00;99.90;;;;;;5002167;28;20030;-58
2022/06/28 06:07:15;;;;;;;4.57;4.22;;;26.10;99.90;;;;;;4997602;28;20038;-62
2022/06/28 06:09:42;;;;;;;4.82;4.50;;;25.60;99.90;;;;;;4993615;28;20022;-61
2022/06/28 06:12:08;;;;;;;3.88;3.67;;;25.30;99.90;;;;;;5002600;28;20105;-62
2022/06/28 06:14:34;;;;;;;5.20;4.80;;;25.00;99.90;;;;;;4996206;28;20038;-62
2022/06/28 06:17:00;;;;;;;4.93;4.53;;;24.70;99.90;;;;;;4999577;28;20026;-62
2022/06/28 06:19:25;;;;;;;5.00;4.63;;;24.70;99.90;;;;;;4996329;28;20026;-62
2022/06/28 06:21:51;;;;;;;4.53;4.13;;;25.40;99.90;;;;;;4998173;28;20027;-62
2022/06/28 06:24:17;;;;;;;4.18;3.88;;;26.80;99.90;;;;;;5007057;28;20057;-62
2022/06/28 06:26:43;;;;;;;4.03;3.72;;;28.10;97.20;;;;;;5006458;28;20050;-62
2022/06/28 06:29:09;;;;;;;4.30;4.00;;;29.00;82.20;;;;;;5001209;28;20027;-62
2022/06/28 06:31:35;;;;;;;3.65;3.35;;;30.00;74.20;;;;;;5001473;28;20026;-63
2022/06/28 06:34:00;;;;;;;3.20;3.00;;;30.70;68.70;;;;;;5004540;28;20038;-62
2022/06/28 06:36:26;;;;;;;3.67;3.25;;;31.40;63.80;;;;;;5009100;28;20524;-63
2022/06/28 06:38:53;;;;;;;2.90;2.60;;;31.90;61.90;;;;;;5007278;28;20378;-63
2022/06/28 06:41:18;;;;;;;4.25;3.00;;;32.20;60.50;;;;;;5008802;28;20116;-63
2022/06/28 06:43:44;;;;;;;3.63;2.95;;;32.80;57.40;;;;;;5002555;28;20109;-63
2022/06/28 06:46:11;;;;;;;2.90;2.70;;;33.20;56.20;;;;;;5002320;28;20037;-63
2022/06/28 06:48:36;;;;;;;2.90;2.70;;;33.50;53.60;;;;;;5003105;28;20034;-63
2022/06/28 06:51:02;;;;;;;3.00;2.75;;;33.80;54.70;;;;;;5007905;28;20036;-63
2022/06/28 06:53:29;;;;;;;3.65;2.80;;;34.40;53.00;;;;;;5003352;28;20125;-63
2022/06/28 06:55:55;;;;;;;3.03;2.83;;;34.80;50.80;;;;;;5001790;28;20022;-63
2022/06/28 06:58:21;;;;;;;2.85;2.65;;;34.80;51.30;;;;;;5005067;28;20038;-63
2022/06/28 07:00:46;;;;;;;2.67;2.42;;;35.00;50.20;;;;;;5005220;28;20028;-63
2022/06/28 07:03:12;;;;;;;3.33;3.05;;;35.10;50.90;;;;;;5009163;28;20030;-63
2022/06/28 07:05:38;;;;;;;2.25;2.15;;;35.10;49.20;;;;;;5004801;28;20068;-63
2022/06/28 07:08:04;;;;;;;3.10;2.40;;;34.90;50.30;;;;;;5001359;28;20023;-63
2022/06/28 07:10:29;;;;;;;2.45;2.28;;;34.40;50.10;;;;;;5001354;28;20038;-63
2022/06/28 07:12:55;;;;;;;4.05;2.40;;;34.40;50.20;;;;;;5006322;28;20060;-63
2022/06/28 07:15:21;;;;;;;2.40;2.15;;;34.20;50.00;;;;;;5006956;28;20030;-63
2022/06/28 07:17:46;;;;;;;2.80;2.60;;;34.50;49.70;;;;;;5002786;28;20025;-62
2022/06/28 07:20:12;;;;;;;2.50;2.25;;;35.20;49.50;;;;;;5006259;28;20112;-63
2022/06/28 07:22:38;;;;;;;2.45;2.25;;;35.40;48.00;;;;;;5006142;28;21913;-63
2022/06/28 07:25:04;;;;;;;3.30;2.30;;;35.80;47.50;;;;;;5003399;28;20085;-63
2022/06/28 07:27:30;;;;;;;3.47;2.10;;;36.50;47.20;;;;;;5004592;28;20057;-63
2022/06/28 07:29:55;;;;;;;2.70;1.90;;;36.70;45.00;;;;;;5004892;28;20523;-63
2022/06/28 07:32:21;;;;;;;2.17;2.05;;;36.70;45.60;;;;;;5000156;28;20125;-63
2022/06/28 07:34:46;;;;;;;2.08;1.92;;;36.20;44.20;;;;;;5003485;28;20473;-63
2022/06/28 07:37:12;;;;;;;1.70;1.60;;;36.00;45.00;;;;;;5000827;28;20022;-63
2022/06/28 07:39:38;;;;;;;1.65;1.55;;;36.20;44.10;;;;;;5005374;28;20026;-62
2022/06/28 07:42:04;;;;;;;3.20;1.67;;;36.50;45.00;;;;;;5005867;28;20021;-63
2022/06/28 07:44:30;;;;;;;2.78;1.73;;;36.50;44.80;;;;;;5002128;28;20560;-63
2022/06/28 07:46:56;;;;;;;2.30;2.10;;;36.20;44.90;;;;;;5000181;28;20109;-63
2022/06/28 07:49:22;;;;;;;2.10;1.80;;;35.80;45.00;;;;;;5004341;28;20125;-64
2022/06/28 07:54:32;;;;;;;2.17;1.98;;;36.80;44.20;;;;;;5004235;28;20038;-61
2022/06/28 07:56:58;;;;;;;3.67;1.85;;;37.70;43.00;;;;;;5003221;28;20023;-61
2022/06/28 07:59:23;;;;;;;2.47;1.92;;;38.80;41.50;;;;;;5004554;28;20129;-61
2022/06/28 08:01:49;;;;;;;2.17;2.03;;;39.40;39.20;;;;;;5003745;28;20030;-61
2022/06/28 08:04:15;;;;;;;1.80;1.70;;;38.80;40.60;;;;;;5004986;28;20485;-61
2022/06/28 08:06:41;;;;;;;1.80;1.60;;;39.10;40.70;;;;;;5007851;28;20038;-60
2022/06/28 08:09:07;;;;;;;2.13;1.50;;;38.70;41.10;;;;;;4999835;28;20461;-60
2022/06/28 08:11:33;;;;;;;1.60;1.50;;;38.90;40.20;;;;;;5001485;28;20072;-60
2022/06/28 08:14:00;;;;;;;1.48;1.38;;;38.50;40.40;;;;;;5000357;28;20030;-61
2022/06/28 08:16:26;;;;;;;4.28;1.58;;;38.10;41.90;;;;;;5008124;28;20137;-61
2022/06/28 08:18:51;;;;;;;1.55;1.45;;;38.00;41.70;;;;;;5003134;28;20438;-61
2022/06/28 08:21:17;;;;;;;1.77;1.63;;;37.80;40.80;;;;;;5004571;28;20069;-62
2022/06/28 08:23:43;;;;;;;2.33;1.30;;;37.20;39.00;;;;;;5002841;28;20473;-61
2022/06/28 08:26:09;;;;;;;1.70;1.60;;;36.50;42.70;;;;;;4995705;28;20057;-61
2022/06/28 08:28:35;;;;;;;1.77;1.65;;;36.40;42.10;;;;;;4995263;28;20058;-61
2022/06/28 08:31:00;;;;;;;1.63;1.52;;;36.50;44.00;;;;;;5003386;28;20052;-61
2022/06/28 08:33:26;;;;;;;2.67;1.80;;;36.90;43.00;;;;;;5001510;28;20068;-61
2022/06/28 08:35:52;;;;;;;1.60;1.50;;;37.50;40.30;;;;;;4997175;28;20049;-60
2022/06/28 08:38:18;;;;;;;3.03;1.75;;;37.80;41.60;;;;;;4997663;28;20097;-61
2022/06/28 08:40:45;;;;;;;3.50;1.77;;;37.90;40.70;;;;;;4996832;28;20448;-60
2022/06/28 08:43:11;;;;;;;2.25;1.90;;;38.40;40.30;;;;;;4997784;28;20401;-61
2022/06/28 08:45:37;;;;;;;2.55;1.65;;;38.90;39.30;;;;;;5002655;28;20037;-61
2022/06/28 08:48:27;;;;;;;1.67;1.55;;;38.40;39.40;;;;;;4998529;28;20102;-61
2022/06/28 08:50:53;;;;;;;2.88;1.63;;;38.40;39.90;;;;;;5000108;28;20054;-61
2022/06/28 08:53:21;;;;;;;2.13;1.50;;;37.60;40.30;;;;;;5000703;28;20034;-61
2022/06/28 08:55:49;;;;;;;4.40;1.67;;;37.90;41.70;;;;;;5002408;28;20072;-61
2022/06/28 08:58:16;;;;;;;1.48;1.38;;;37.50;40.40;;;;;;5001463;28;20034;-61
2022/06/28 09:00:41;;;;;;;1.35;1.23;;;37.10;41.40;;;;;;4999693;28;20068;-61
2022/06/28 09:03:07;;;;;;;1.50;1.30;;;36.60;39.30;;;;;;5002420;28;20480;-61
2022/06/28 09:05:33;;;;;;;1.42;1.13;;;36.40;40.50;;;;;;5001703;28;20512;-61
2022/06/28 09:07:59;;;;;;;1.52;1.42;;;36.40;37.90;;;;;;4999069;28;20065;-61
2022/06/28 09:10:26;;;;;;;1.58;1.30;;;36.30;39.80;;;;;;4999351;28;20114;-61
2022/06/28 09:13:08;;;;;;;1.65;1.35;;;36.40;39.50;;;;;;4998751;28;20038;-61
2022/06/28 09:15:53;;;;;;;1.52;1.13;;;36.50;38.50;;;;;;4999943;28;20025;-61
2022/06/28 09:18:20;;;;;;;1.20;1.10;;;36.70;39.00;;;;;;5002482;28;20026;-61
2022/06/28 09:20:51;;;;;;;2.28;1.38;;;36.70;39.10;;;;;;4999694;28;20034;-61
2022/06/28 09:23:29;;;;;;;1.90;1.20;;;36.80;36.20;;;;;;4996231;28;20045;-61
2022/06/28 09:26:01;;;;;;;1.23;1.00;;;37.10;37.70;;;;;;5002800;28;20045;-61
2022/06/28 09:28:29;;;;;;;1.35;1.25;;;37.30;36.80;;;;;;5001874;28;20493;-61
2022/06/28 09:31:14;;;;;;;1.27;1.17;;;37.20;35.90;;;;;;5004618;28;20022;-61
2022/06/28 09:33:41;;;;;;;1.27;1.17;;;37.50;36.90;;;;;;4995450;28;20040;-61
2022/06/28 09:36:10;;;;;;;1.38;1.13;;;38.00;36.80;;;;;;4996459;28;20025;-61
2022/06/28 09:38:36;;;;;;;0.88;0.88;;;37.80;36.70;;;;;;4996605;28;20035;-61
2022/06/28 09:41:02;;;;;;;1.10;1.00;;;37.70;36.40;;;;;;4998636;28;20033;-60
2022/06/28 09:43:32;;;;;;;1.00;0.80;;;38.30;36.00;;;;;;4995407;28;20027;-60
2022/06/28 09:46:02;;;;;;;1.85;1.00;;;38.50;35.80;;;;;;4993623;28;20023;-61
2022/06/28 09:48:37;;;;;;;1.20;1.05;;;38.10;35.40;;;;;;4996054;28;20033;-61
2022/06/28 09:51:04;;;;;;;1.00;0.90;;;38.90;35.00;;;;;;4997961;28;20049;-60
2022/06/28 09:53:31;;;;;;;1.58;0.90;;;39.40;34.70;;;;;;4995627;28;20459;-61
2022/06/28 09:56:05;;;;;;;1.15;0.85;;;39.90;33.50;;;;;;4997107;28;20026;-61
2022/06/28 09:58:32;;;;;;;2.50;0.80;;;39.20;32.40;;;;;;4993032;28;20035;-61
2022/06/28 10:00:57;;;;;;;1.45;1.08;;;39.40;32.20;;;;;;4993749;28;20042;-61
2022/06/28 10:03:23;;;;;;;1.98;0.80;;;39.00;32.90;;;;;;4994063;28;20038;-61
2022/06/28 10:05:49;;;;;;;1.05;0.90;;;38.80;31.40;;;;;;4998876;28;20026;-61
2022/06/28 10:08:15;;;;;;;1.17;1.00;;;38.30;31.20;;;;;;5003968;28;20026;-61
2022/06/28 10:10:41;;;;;;;1.58;1.00;;;37.50;33.40;;;;;;4998251;28;20030;-61
2022/06/28 10:16:01;;;;;;;1.42;1.05;;;36.80;35.30;;;;;;5000332;28;20532;-61
2022/06/28 10:18:28;;;;;;;1.35;0.93;;;36.80;36.70;;;;;;4996042;28;20080;-61
2022/06/28 10:20:55;;;;;;;1.15;0.90;;;36.70;36.50;;;;;;4994938;28;20022;-61
2022/06/28 10:23:28;;;;;;;1.40;1.30;;;36.60;34.80;;;;;;4997382;28;20072;-61
2022/06/28 10:26:06;;;;;;;1.05;0.95;;;36.40;35.00;;;;;;4996282;28;20022;-61
2022/06/28 10:28:34;;;;;;;1.13;1.02;;;36.70;35.80;;;;;;4996932;28;20122;-61
2022/06/28 10:31:22;;;;;;;1.20;1.10;;;37.30;35.50;;;;;;5000132;28;20485;-61
2022/06/28 10:33:58;;;;;;;1.70;1.02;;;37.10;32.60;;;;;;5002594;28;20053;-61
2022/06/28 10:36:26;;;;;;;1.38;1.27;;;35.80;33.80;;;;;;5000306;28;20038;-61
2022/06/28 10:39:01;;;;;;;2.17;1.00;;;35.10;35.10;;;;;;4994080;28;20021;-61
2022/06/28 10:41:36;;;;;;;1.20;1.10;;;34.60;35.80;;;;;;4993904;28;20108;-61
2022/06/28 10:44:10;;;;;;;0.80;0.80;;;34.20;37.50;;;;;;5000559;28;20029;-60
2022/06/28 10:46:36;;;;;;;1.27;1.17;;;33.80;38.20;;;;;;5001460;28;20027;-61
2022/06/28 10:49:04;;;;;;;0.80;0.80;;;33.30;37.50;;;;;;5000098;28;20025;-61
2022/06/28 10:51:30;;;;;;;1.10;0.90;;;33.10;36.30;;;;;;4995537;28;20041;-61
2022/06/28 10:54:03;;;;;;;2.03;1.02;;;32.90;37.80;;;;;;4996178;28;20022;-61
2022/06/28 10:56:36;;;;;;;1.40;0.90;;;32.50;37.40;;;;;;5001606;28;20496;-60
2022/06/28 10:59:08;;;;;;;1.20;0.90;;;32.50;36.20;;;;;;4996386;28;20038;-60
2022/06/28 11:01:39;;;;;;;0.85;0.80;;;32.30;37.00;;;;;;4998340;28;20035;-61
2022/06/28 11:04:20;;;;;;;1.92;0.80;;;32.40;36.60;;;;;;5000866;28;20027;-61
2022/06/28 11:06:57;;;;;;;0.90;0.85;;;32.60;36.80;;;;;;4995443;28;20038;-61
2022/06/28 11:10:00;;;;;;;2.10;1.00;;;32.90;38.40;;;;;;5002303;28;20022;-61
2022/06/28 11:12:31;;;;;;;2.10;1.00;;;33.10;38.60;;;;;;4998763;28;20034;-61
2022/06/28 11:15:02;;;;;;;2.35;0.90;;;33.50;38.10;;;;;;5002270;28;20009;-60
2022/06/28 11:17:32;;;;;;;1.45;1.10;;;33.90;36.80;;;;;;5001944;28;20832;-61
2022/06/28 11:20:03;;;;;;;1.73;1.20;;;33.90;36.90;;;;;;5007364;28;20034;-60
2022/06/28 11:22:49;;;;;;;1.30;1.20;;;33.90;38.90;;;;;;5005986;28;20029;-61
2022/06/28 11:25:17;;;;;;;1.45;1.10;;;33.80;38.90;;;;;;5001770;28;20026;-60
2022/06/28 11:27:52;;;;;;;2.72;1.13;;;33.90;38.00;;;;;;4997955;28;20029;-61
2022/06/28 11:30:18;;;;;;;1.27;1.15;;;33.70;38.20;;;;;;5001122;28;20029;-61
2022/06/28 11:32:45;;;;;;;1.98;1.15;;;33.30;36.10;;;;;;5002209;28;20014;-61
2022/06/28 11:35:15;;;;;;;1.38;0.95;;;33.30;37.10;;;;;;5005157;28;20022;-60
2022/06/28 11:37:57;;;;;;;2.85;1.00;;;33.30;39.70;;;;;;5004780;28;20457;-60
2022/06/28 11:40:28;;;;;;;1.38;1.10;;;33.30;37.40;;;;;;4998813;28;20487;-61
2022/06/28 11:43:06;;;;;;;2.17;1.17;;;33.00;38.20;;;;;;5000924;28;20402;-61
2022/06/28 11:45:35;;;;;;;1.10;1.00;;;32.70;38.40;;;;;;4997701;28;20485;-60
2022/06/28 11:48:11;;;;;;;1.23;1.13;;;32.80;38.70;;;;;;5007099;28;20026;-60
2022/06/28 11:50:45;;;;;;;1.33;1.17;;;33.20;38.00;;;;;;5001943;28;20073;-60
2022/06/28 11:53:12;;;;;;;2.35;1.40;;;33.60;37.20;;;;;;4999407;28;20034;-60
2022/06/28 11:55:58;;;;;;;1.42;1.10;;;33.70;37.60;;;;;;5002777;28;20045;-60
2022/06/28 11:58:25;;;;;;;1.08;0.93;;;34.00;36.70;;;;;;5003086;28;20076;-60
2022/06/28 12:01:16;;;;;;;1.40;1.23;;;34.20;37.20;;;;;;5003916;28;20504;-61
2022/06/28 12:03:42;;;;;;;1.52;1.25;;;34.40;36.20;;;;;;5000453;28;20109;-60
2022/06/28 12:06:10;;;;;;;2.17;1.35;;;33.60;36.60;;;;;;5000258;28;20030;-61
2022/06/28 12:08:49;;;;;;;4.00;1.60;;;32.40;37.20;;;;;;5002168;28;20121;-60
2022/06/28 12:11:30;;;;;;;2.38;1.50;;;31.20;38.70;;;;;;5000593;28;20046;-60
2022/06/28 12:14:02;;;;;;;;;;;30.70;42.70;;;;;;5006055;28;20022;-60
2022/06/28 12:16:34;;;;;;;1.98;1.50;;;31.20;42.70;;;;;;5000848;28;20361;-60
2022/06/28 12:19:00;;;;;;;1.88;1.70;;;32.20;41.10;;;;;;4999874;28;20030;-60
2022/06/28 12:21:27;;;;;;;2.03;1.50;;;32.90;40.60;;;;;;5002251;28;20028;-60
2022/06/28 12:23:54;;;;;;;1.30;1.20;;;33.30;37.80;;;;;;4999756;28;20023;-60
2022/06/28 12:26:35;;;;;;;2.03;1.45;;;33.30;39.10;;;;;;5006069;28;20374;-60
2022/06/28 12:29:01;;;;;;;5.10;1.23;;;33.20;38.30;;;;;;5003036;28;20038;-60
2022/06/28 12:31:27;;;;;;;4.13;1.88;;;33.30;41.10;;;;;;4999043;28;20041;-60
2022/06/28 12:33:52;;;;;;;1.60;1.25;;;33.30;38.40;;;;;;5000581;28;20061;-60
2022/06/28 12:36:18;;;;;;;1.70;1.27;;;33.50;38.10;;;;;;5003161;28;20037;-60
2022/06/28 12:38:44;;;;;;;2.53;1.48;;;33.70;39.30;;;;;;5004586;28;20469;-61
2022/06/28 12:41:09;;;;;;;5.18;1.10;;;33.30;37.30;;;;;;5004674;28;20026;-60
2022/06/28 12:43:35;;;;;;;1.35;0.98;;;33.00;40.00;;;;;;4998854;28;20030;-61
2022/06/28 12:46:00;;;;;;;1.88;1.35;;;33.00;39.80;;;;;;5001190;28;20022;-60
2022/06/28 12:48:26;;;;;;;1.38;1.10;;;32.90;39.60;;;;;;4999274;28;20101;-60
2022/06/28 12:50:52;;;;;;;1.77;1.17;;;32.30;38.20;;;;;;5002899;28;20034;-63
2022/06/28 12:53:20;;;;;;;1.05;1.02;;;32.30;39.40;;;;;;5004448;28;20030;-63
2022/06/28 12:55:46;;;;;;;2.88;1.33;;;31.90;38.90;;;;;;4999538;28;20038;-63
2022/06/28 12:58:11;;;;;;;2.15;1.15;;;31.00;38.90;;;;;;5007133;28;20038;-63
2022/06/28 13:00:37;;;;;;;5.05;1.10;;;30.40;40.30;;;;;;5001714;28;20026;-62